Terminal Aerodrome Forecast
Issued by NWS Blacksburg, VA

Home | Current Version | Previous Version | Text Only | Print | Product List | Glossary On
Versions: 1 2 3 4 5 6 7 8 9 10 11 12 13 14
000
FTUS41 KRNK 190520
TAFROA
TAF
KROA 190520Z 1906/2006 16005KT P6SM BKN130
     FM190800 12005KT P6SM -RA OVC020
     FM191200 13005KT P6SM -RA OVC008
     FM191900 15005KT P6SM BKN060
     FM200000 14004KT 3SM BR OVC020=

USA.gov is the U.S. government's official web portal to all federal, state and local government web resources and services.